This is the latest recevied weather packets stored in our database for station/object KC8BSD. If no packets are shown the sender has not sent any weather packets the latest 1 day(s).
| Time | Temp. | Humidity | Pressure | Rain* | Wind** | Luminosity | Snow |
|---|---|---|---|---|---|---|---|
| 1778014151 | 12.78° C | 61% | 1009 hPa | 0 mm | 0.89 m/s, 42° | 109 W/m² | - |
| 1778013849 | 12.78° C | 61% | 1009.2 hPa | 0 mm | 0.45 m/s, 22° | 92 W/m² | - |
| 1778013546 | 12.78° C | 61% | 1009.4 hPa | 0 mm | 0.45 m/s, 264° | 81 W/m² | - |
| 1778013242 | 12.78° C | 60% | 1009.3 hPa | 0 mm | 1.79 m/s, 105° | 105 W/m² | - |
| 1778012939 | 12.78° C | 60% | 1009.3 hPa | 0 mm | 1.34 m/s, 44° | 132 W/m² | - |
| 1778012635 | 12.78° C | 61% | 1008.9 hPa | 0 mm | 0.45 m/s, 331° | 135 W/m² | - |
| 1778012332 | 12.78° C | 62% | 1009 hPa | 0 mm | 1.34 m/s, 33° | 127 W/m² | - |
| 1778012029 | 12.78° C | 61% | 1008.7 hPa | 0 mm | 1.34 m/s, 18° | 111 W/m² | - |
| 1778011727 | 12.78° C | 62% | 1008.7 hPa | 0 mm | 0.89 m/s, 14° | 104 W/m² | - |
| 1778011424 | 12.78° C | 64% | 1008.8 hPa | 0 mm | 0 m/s | 100 W/m² | - |
| 1778011119 | 12.78° C | 61% | 1008.9 hPa | 0 mm | 0.45 m/s, 281° | 121 W/m² | - |
| 1778010817 | 12.78° C | 60% | 1008.9 hPa | 0 mm | 0.89 m/s, 87° | 140 W/m² | - |
| 1778010514 | 13.33° C | 59% | 1008.9 hPa | 0 mm | 0.45 m/s, 71° | 163 W/m² | - |
| 1778010211 | 13.33° C | 59% | 1009.2 hPa | 0 mm | 0.89 m/s, 101° | 176 W/m² | - |
| 1778009906 | 13.33° C | 60% | 1009 hPa | 0 mm | 0.89 m/s, 287° | 192 W/m² | - |
| 1778009605 | 13.33° C | 59% | 1008.9 hPa | 0 mm | 1.34 m/s, 72° | 193 W/m² | - |
| 1778009302 | 13.33° C | 59% | 1009.2 hPa | 0 mm | 0 m/s | 169 W/m² | - |
| 1778009000 | 13.33° C | 61% | 1009.2 hPa | 0 mm | 0 m/s | 196 W/m² | - |
| 1778008697 | 12.78° C | 60% | 1009.3 hPa | 0 mm | 0.45 m/s, 234° | 230 W/m² | - |
| 1778008396 | 12.78° C | 60% | 1009 hPa | 0 mm | 0.45 m/s, 320° | 195 W/m² | - |
| 1778008092 | 12.78° C | 59% | 1009.3 hPa | 0 mm | 2.24 m/s, 53° | 153 W/m² | - |
| 1778007788 | 13.33° C | 59% | 1008.8 hPa | 0 mm | 0.89 m/s, 294° | 124 W/m² | - |
| 1778007484 | 13.33° C | 60% | 1008.9 hPa | 0 mm | 0.45 m/s, 10° | 123 W/m² | - |
| 1778007180 | 13.33° C | 61% | 1009.4 hPa | 0 mm | 0.45 m/s, 239° | 123 W/m² | - |
| 1778006876 | 13.33° C | 59% | 1009 hPa | 0 mm | 0.89 m/s, 348° | 161 W/m² | - |
* Rain latest hour (hover to see other rain measurements)
** Current wind speed in m/s (hover to see current wind gust speed)